Mission, Arizona
Current Conditions -  °F | °C
As of 8:03 PM on Friday 24 Oct 2014 (Local Time) from KDMA Reporting Station
Haze Haze  
Wind Chill: 79°   Ceiling: Unl
Heat Index: 79°   Visibility: 2.5mi
Dew Point: 46°   Wind: 6mph
Humidity: 32%   Direction: 260°W
Pressure: 30.07"   Gusts: NA
Location:  32.1206°N, 110.871°W
Report Text: KDMA 250303Z AUTO 26005KT 2 1/2SM R12/3500FT HZ CLR 26/08 A3007 RMK AO2 VIS 2 1/2V3 $
Loading
Personal Weather Stations






























Interactive Weather Map
Tropical Storm Tracking
New forecast layout! Learn more

10-Day Weather Forecast

Advertisements
Track Severe Weather on mobile